createdAt,value
2023-04-05T00:01:43.026Z,27.00
2023-04-05T00:04:12.011Z,27.10
2023-04-05T00:06:45.000Z,27.10
2023-04-05T00:09:14.259Z,27.20
2023-04-05T00:11:43.252Z,27.20
2023-04-05T00:14:12.069Z,27.30
2023-04-05T00:16:41.258Z,27.40
2023-04-05T00:19:12.179Z,27.50
2023-04-05T00:21:41.573Z,27.60
2023-04-05T00:24:16.354Z,27.60
2023-04-05T00:26:45.168Z,27.70
2023-04-05T00:29:14.066Z,27.80
2023-04-05T00:31:42.848Z,27.80
2023-04-05T00:34:13.425Z,27.90
2023-04-05T00:36:42.192Z,28.00
2023-04-05T00:39:10.994Z,28.00
2023-04-05T00:41:41.069Z,28.10
2023-04-05T00:44:10.043Z,28.20
2023-04-05T00:46:38.816Z,28.30
2023-04-05T00:49:07.958Z,28.30
2023-04-05T00:51:39.061Z,28.40
2023-04-05T00:54:08.102Z,28.40
2023-04-05T00:56:37.747Z,28.50
2023-04-05T00:59:07.018Z,28.50
2023-04-05T01:01:39.013Z,28.60
2023-04-05T01:04:08.454Z,28.60
2023-04-05T01:06:39.342Z,28.70
2023-04-05T01:09:24.296Z,28.70
2023-04-05T01:11:57.056Z,28.80
2023-04-05T01:14:25.473Z,28.80
2023-04-05T01:16:59.134Z,28.90
2023-04-05T01:19:29.568Z,29.00
2023-04-05T01:22:17.512Z,29.10
2023-04-05T01:24:47.907Z,29.20
2023-04-05T01:27:21.247Z,29.30
2023-04-05T01:30:05.799Z,29.30
2023-04-05T01:32:34.660Z,29.40
2023-04-05T01:35:11.788Z,29.60
2023-04-05T01:37:41.591Z,29.70
2023-04-05T01:40:10.270Z,29.70
2023-04-05T01:42:38.624Z,29.80
2023-04-05T01:45:07.262Z,29.90
2023-04-05T01:47:35.854Z,30.00
2023-04-05T01:50:04.475Z,30.10
2023-04-05T01:52:32.790Z,30.10
2023-04-05T01:55:01.303Z,30.20
2023-04-05T01:57:29.674Z,30.20
2023-04-05T01:59:58.333Z,30.30
2023-04-05T02:02:26.937Z,30.40
2023-04-05T02:04:58.764Z,30.50
2023-04-05T02:07:28.195Z,30.50
2023-04-05T02:09:56.680Z,30.60
2023-04-05T02:12:25.179Z,30.60
2023-04-05T02:14:53.667Z,30.70
2023-04-05T02:17:22.857Z,30.80
2023-04-05T02:19:53.960Z,30.90
2023-04-05T02:22:22.527Z,31.00
2023-04-05T02:24:51.041Z,31.10
2023-04-05T02:27:19.695Z,31.20
2023-04-05T02:29:48.068Z,31.30
2023-04-05T02:32:17.261Z,31.40
2023-04-05T02:34:45.593Z,31.40
2023-04-05T02:37:14.678Z,31.50
2023-04-05T02:39:43.189Z,31.60
2023-04-05T02:42:11.627Z,31.60
2023-04-05T02:44:40.160Z,31.70
2023-04-05T02:47:08.533Z,31.80
2023-04-05T02:49:37.054Z,31.90
2023-04-05T02:52:05.780Z,32.00
2023-04-05T02:54:34.439Z,32.10
2023-04-05T02:57:03.343Z,32.10
2023-04-05T02:59:31.770Z,32.20
2023-04-05T03:02:00.293Z,32.20
2023-04-05T03:04:28.742Z,32.30
2023-04-05T03:06:58.213Z,32.40
2023-04-05T03:09:28.893Z,32.40
2023-04-05T03:11:57.326Z,32.40
2023-04-05T03:14:25.812Z,32.50
2023-04-05T03:16:54.201Z,32.50
2023-04-05T03:19:23.870Z,32.60
2023-04-05T03:21:55.375Z,32.70
2023-04-05T03:24:24.497Z,32.80
2023-04-05T03:26:53.022Z,32.80
2023-04-05T03:29:21.423Z,32.90
2023-04-05T03:31:50.828Z,32.90
2023-04-05T03:34:19.276Z,33.00
2023-04-05T03:36:48.912Z,33.00
2023-04-05T03:39:17.498Z,33.10
2023-04-05T03:41:46.716Z,33.10
2023-04-05T03:44:15.128Z,33.10
2023-04-05T03:46:44.103Z,33.20
2023-04-05T03:49:12.935Z,33.30
2023-04-05T03:51:41.323Z,33.30
2023-04-05T03:54:09.694Z,33.30
2023-04-05T03:56:38.107Z,33.30
2023-04-05T03:59:06.545Z,33.40
2023-04-05T04:01:35.265Z,33.50
2023-04-05T04:04:05.980Z,33.60
2023-04-05T04:06:34.557Z,33.60
2023-04-05T04:09:03.123Z,33.60
2023-04-05T04:11:31.866Z,33.70
2023-04-05T04:14:00.212Z,33.70
2023-04-05T04:16:28.934Z,33.80
2023-04-05T04:18:57.608Z,33.90
2023-04-05T04:21:28.994Z,33.90
2023-04-05T04:23:58.698Z,33.90
2023-04-05T04:26:29.881Z,34.00
2023-04-05T04:28:58.330Z,34.10
2023-04-05T04:31:26.726Z,34.20
2023-04-05T04:33:56.428Z,34.20
2023-04-05T04:36:35.738Z,34.20
2023-04-05T04:39:07.800Z,34.30
2023-04-05T04:41:37.194Z,34.50
2023-04-05T04:44:07.134Z,34.60
2023-04-05T04:46:43.705Z,34.70
2023-04-05T04:49:12.247Z,34.70
2023-04-05T04:51:40.694Z,34.80
2023-04-05T04:54:09.121Z,34.90
2023-04-05T04:56:37.679Z,34.90
2023-04-05T04:59:06.808Z,35.00
2023-04-05T05:01:35.432Z,35.10
2023-04-05T05:04:04.850Z,35.10
2023-04-05T05:06:33.971Z,35.10
2023-04-05T05:09:02.379Z,35.10
2023-04-05T05:11:30.948Z,35.10
2023-04-05T05:14:00.136Z,35.20
2023-04-05T05:16:29.022Z,35.30
2023-04-05T05:18:57.499Z,35.40
2023-04-05T05:21:25.897Z,35.40
2023-04-05T05:23:54.370Z,35.40
2023-04-05T05:26:22.719Z,35.50
2023-04-05T05:28:51.219Z,35.50
2023-04-05T05:31:20.434Z,35.50
2023-04-05T05:33:50.940Z,35.50
2023-04-05T05:36:20.870Z,35.60
2023-04-05T05:38:50.059Z,35.60
2023-04-05T05:41:18.488Z,35.60
2023-04-05T05:43:47.216Z,35.60
2023-04-05T05:46:15.855Z,35.50
2023-04-05T05:48:44.229Z,35.50
2023-04-05T05:51:12.794Z,35.50
2023-04-05T05:53:41.377Z,35.50
2023-04-05T05:56:09.759Z,35.50
2023-04-05T05:58:38.358Z,35.50
2023-04-05T06:01:08.645Z,35.50
2023-04-05T06:03:37.188Z,35.50
2023-04-05T06:06:09.454Z,35.60
2023-04-05T06:08:37.876Z,35.60
2023-04-05T06:11:06.458Z,35.60
2023-04-05T06:13:34.992Z,35.70
2023-04-05T06:16:03.701Z,35.70
2023-04-05T06:18:32.080Z,35.80
2023-04-05T06:21:00.439Z,35.90
2023-04-05T06:23:28.857Z,36.00
2023-04-05T06:25:58.298Z,36.10
2023-04-05T06:28:26.883Z,36.10
2023-04-05T06:30:55.927Z,36.10
2023-04-05T06:33:24.329Z,36.20
2023-04-05T06:35:52.811Z,36.20
2023-04-05T06:38:21.358Z,36.30
2023-04-05T06:40:49.772Z,36.30
2023-04-05T06:43:18.155Z,36.50
2023-04-05T06:45:46.625Z,36.70
2023-04-05T06:48:15.023Z,36.80
2023-04-05T06:50:43.633Z,37.00
2023-04-05T06:53:12.886Z,37.10
2023-04-05T06:55:41.754Z,37.10
2023-04-05T06:58:10.092Z,37.20
2023-04-05T07:00:38.721Z,37.20
2023-04-05T07:03:07.564Z,37.20
2023-04-05T07:05:35.893Z,37.30
2023-04-05T07:08:04.530Z,37.30
2023-04-05T07:10:33.040Z,37.40
2023-04-05T07:13:01.392Z,37.30
2023-04-05T07:15:29.747Z,37.30
2023-04-05T07:17:58.236Z,37.30
2023-04-05T07:20:26.948Z,37.30
2023-04-05T07:22:55.302Z,37.30
2023-04-05T07:25:23.676Z,37.30
2023-04-05T07:27:53.815Z,37.30
2023-04-05T07:30:22.424Z,37.40
2023-04-05T07:32:51.019Z,37.50
2023-04-05T07:35:19.513Z,37.60
2023-04-05T07:37:47.910Z,37.60
2023-04-05T07:40:16.434Z,37.60
2023-04-05T07:42:44.767Z,37.60
2023-04-05T07:45:13.339Z,37.50
2023-04-05T07:47:41.980Z,37.50
2023-04-05T07:50:12.642Z,37.50
2023-04-05T07:52:41.101Z,37.50
2023-04-05T07:55:10.462Z,37.50
2023-04-05T07:57:39.051Z,37.50
2023-04-05T08:00:13.175Z,37.50
2023-04-05T08:02:41.793Z,37.60
2023-04-05T08:05:10.385Z,37.60
2023-04-05T08:07:38.765Z,37.60
2023-04-05T08:10:07.577Z,37.60
2023-04-05T08:12:38.389Z,37.60
2023-04-05T08:15:07.859Z,37.50
2023-04-05T08:17:36.258Z,37.50
2023-04-05T08:20:05.112Z,37.60
2023-04-05T08:22:33.452Z,37.60
2023-04-05T08:25:01.964Z,37.60
2023-04-05T08:27:32.652Z,37.50
2023-04-05T08:30:01.139Z,37.50
2023-04-05T08:32:29.633Z,37.50
2023-04-05T08:34:58.140Z,37.50
2023-04-05T08:37:26.582Z,37.60
2023-04-05T08:39:55.478Z,37.60
2023-04-05T08:42:27.616Z,37.50
2023-04-05T08:44:58.163Z,37.60
2023-04-05T08:47:27.219Z,37.50
2023-04-05T08:49:55.813Z,37.50
2023-04-05T08:52:24.347Z,37.40
2023-04-05T08:54:55.289Z,37.40
2023-04-05T08:57:28.466Z,37.40
2023-04-05T08:59:57.784Z,37.40
2023-04-05T09:02:26.572Z,37.40
2023-04-05T09:04:55.433Z,37.40
2023-04-05T09:07:24.560Z,37.40
2023-04-05T09:09:54.577Z,37.30
2023-04-05T09:12:24.833Z,37.30
2023-04-05T09:14:53.338Z,37.40
2023-04-05T09:17:22.627Z,37.40
2023-04-05T09:19:51.478Z,37.40
2023-04-05T09:22:19.905Z,37.40
2023-04-05T09:24:48.444Z,37.40
2023-04-05T09:27:18.133Z,37.40
2023-04-05T09:29:47.282Z,37.30
2023-04-05T09:32:16.895Z,37.20
2023-04-05T09:34:45.679Z,37.10
2023-04-05T09:37:16.417Z,37.10
2023-04-05T09:39:45.402Z,37.20
2023-04-05T09:42:15.389Z,37.10
2023-04-05T09:45:03.678Z,37.10
2023-04-05T09:47:33.558Z,37.10
2023-04-05T09:50:02.701Z,37.00
2023-04-05T09:52:33.970Z,36.90
2023-04-05T09:55:04.199Z,36.80
2023-04-05T09:57:35.321Z,36.80
2023-04-05T10:00:05.362Z,36.70
2023-04-05T10:02:38.862Z,36.70
2023-04-05T10:05:08.341Z,36.70
2023-04-05T10:07:37.341Z,36.70
2023-04-05T10:10:05.973Z,36.60
2023-04-05T10:12:34.906Z,36.50
2023-04-05T10:15:03.239Z,36.40
2023-04-05T10:17:32.108Z,36.40
2023-04-05T10:20:00.927Z,36.40
2023-04-05T10:22:37.801Z,36.30
2023-04-05T10:25:09.597Z,36.20
2023-04-05T10:27:43.240Z,36.20
2023-04-05T10:30:12.519Z,36.10
2023-04-05T10:32:41.468Z,36.10
2023-04-05T10:35:10.377Z,36.10
2023-04-05T10:37:45.687Z,36.00
2023-04-05T10:40:14.307Z,35.90
2023-04-05T10:42:44.997Z,35.90
2023-04-05T10:45:16.394Z,35.80
2023-04-05T10:47:49.333Z,35.80
2023-04-05T10:50:21.527Z,35.70
2023-04-05T10:52:50.502Z,35.70
2023-04-05T10:55:19.087Z,35.60
2023-04-05T10:57:48.332Z,35.60
2023-04-05T11:00:17.772Z,35.60
2023-04-05T11:02:46.267Z,35.50
2023-04-05T11:05:34.968Z,35.40
2023-04-05T11:08:07.029Z,35.40
2023-04-05T11:10:37.333Z,35.30
2023-04-05T11:13:07.054Z,35.20
2023-04-05T11:15:36.157Z,35.10
2023-04-05T11:18:05.242Z,35.00
2023-04-05T11:20:53.384Z,35.00
2023-04-05T11:23:22.764Z,34.90
2023-04-05T11:25:55.277Z,34.70
2023-04-05T11:28:25.034Z,34.70
2023-04-05T11:30:55.120Z,34.60
2023-04-05T11:33:39.168Z,34.60
2023-04-05T11:36:07.936Z,34.60
2023-04-05T11:38:36.399Z,34.50
2023-04-05T11:41:09.016Z,34.50
2023-04-05T11:43:39.465Z,34.40
2023-04-05T11:46:08.043Z,34.30
2023-04-05T11:48:37.393Z,34.30
2023-04-05T11:51:09.878Z,34.20
2023-04-05T11:53:38.966Z,34.20
2023-04-05T11:56:10.880Z,34.10
2023-04-05T11:58:39.421Z,34.10
2023-04-05T12:01:08.680Z,34.10
2023-04-05T12:03:38.086Z,34.00
2023-04-05T12:06:07.556Z,34.00
2023-04-05T12:08:40.605Z,33.90
2023-04-05T12:11:11.158Z,33.90
2023-04-05T12:13:39.904Z,33.90
2023-04-05T12:16:09.974Z,33.80
2023-04-05T12:18:38.986Z,33.80
2023-04-05T12:21:08.454Z,33.80
2023-04-05T12:23:38.317Z,33.70
2023-04-05T12:26:08.835Z,33.70
2023-04-05T12:28:57.798Z,33.60
2023-04-05T12:31:45.781Z,33.50
2023-04-05T12:34:16.317Z,33.50
2023-04-05T12:36:47.260Z,33.50
2023-04-05T12:39:17.454Z,33.40
2023-04-05T12:41:45.940Z,33.40
2023-04-05T12:44:18.522Z,33.40
2023-04-05T12:46:48.157Z,33.30
2023-04-05T12:49:17.119Z,33.30
2023-04-05T12:51:47.107Z,33.20
2023-04-05T12:54:17.794Z,33.20
2023-04-05T12:56:46.160Z,33.20
2023-04-05T12:59:14.591Z,33.10
2023-04-05T13:01:43.066Z,33.10
2023-04-05T13:06:42.555Z,33.00
2023-04-05T13:09:10.990Z,33.00
2023-04-05T13:11:39.465Z,32.90
2023-04-05T13:14:08.009Z,32.90
2023-04-05T13:16:36.660Z,32.80
2023-04-05T13:19:05.134Z,32.80
2023-04-05T13:21:33.632Z,32.70
2023-04-05T13:24:02.079Z,32.70
2023-04-05T13:26:30.628Z,32.70
2023-04-05T13:28:59.068Z,32.70
2023-04-05T13:31:27.572Z,32.70
2023-04-05T13:33:56.197Z,32.70
2023-04-05T13:36:24.646Z,32.70
2023-04-05T13:38:53.018Z,32.70
2023-04-05T13:41:22.169Z,32.70
2023-04-05T13:43:50.856Z,32.70
2023-04-05T13:46:19.360Z,32.70
2023-04-05T13:48:47.740Z,32.70
2023-04-05T13:51:16.672Z,32.60
2023-04-05T13:53:45.038Z,32.60
2023-04-05T13:56:13.490Z,32.60
2023-04-05T13:58:42.098Z,32.60
2023-04-05T14:01:10.488Z,32.50
2023-04-05T14:03:39.025Z,32.50
2023-04-05T14:06:07.662Z,32.40
2023-04-05T14:08:36.309Z,32.40
2023-04-05T14:11:06.527Z,32.40
2023-04-05T14:13:38.057Z,32.40
2023-04-05T14:16:07.075Z,32.40
2023-04-05T14:18:35.518Z,32.30
2023-04-05T14:21:04.185Z,32.30
2023-04-05T14:23:32.623Z,32.20
2023-04-05T14:26:01.296Z,32.20
2023-04-05T14:28:29.632Z,32.10
2023-04-05T14:30:59.877Z,32.10
2023-04-05T14:33:28.362Z,32.00
2023-04-05T14:35:56.979Z,31.90
2023-04-05T14:38:26.211Z,31.90
2023-04-05T14:40:54.646Z,31.80
2023-04-05T14:43:23.001Z,31.80
2023-04-05T14:45:51.800Z,31.80
2023-04-05T14:48:20.238Z,31.70
2023-04-05T14:50:48.571Z,31.70
2023-04-05T14:53:17.018Z,31.70
2023-04-05T14:55:45.461Z,31.60
2023-04-05T14:58:14.492Z,31.60
2023-04-05T15:00:43.414Z,31.60
2023-04-05T15:03:12.162Z,31.60
2023-04-05T15:05:40.704Z,31.50
2023-04-05T15:08:09.132Z,31.50
2023-04-05T15:10:37.800Z,31.50
2023-04-05T15:13:06.261Z,31.50
2023-04-05T15:15:34.613Z,31.50
2023-04-05T15:18:03.161Z,31.50
2023-04-05T15:20:31.671Z,31.50
2023-04-05T15:23:00.203Z,31.40
2023-04-05T15:25:28.597Z,31.40
2023-04-05T15:28:01.064Z,31.40
2023-04-05T15:30:32.641Z,31.30
2023-04-05T15:33:01.155Z,31.30
2023-04-05T15:35:29.633Z,31.30
2023-04-05T15:37:57.964Z,31.20
2023-04-05T15:40:26.294Z,31.20
2023-04-05T15:42:55.854Z,31.10
2023-04-05T15:45:24.276Z,31.00
2023-04-05T15:47:52.706Z,31.00
2023-04-05T15:50:21.453Z,31.00
2023-04-05T15:52:50.241Z,31.00
2023-04-05T15:55:18.597Z,31.00
2023-04-05T15:57:47.029Z,31.00
2023-04-05T16:00:15.678Z,30.90
2023-04-05T16:02:44.149Z,30.90
2023-04-05T16:05:12.547Z,30.90
2023-04-05T16:07:41.169Z,30.90
2023-04-05T16:10:09.934Z,30.90
2023-04-05T16:12:38.555Z,30.90
2023-04-05T16:15:07.836Z,30.90
2023-04-05T16:17:36.658Z,30.90
2023-04-05T16:20:05.179Z,30.90
2023-04-05T16:22:33.574Z,30.90
2023-04-05T16:25:02.285Z,30.80
2023-04-05T16:27:30.668Z,30.80
2023-04-05T16:29:59.038Z,30.70
2023-04-05T16:32:27.541Z,30.70
2023-04-05T16:34:56.069Z,30.60
2023-04-05T16:37:24.537Z,30.60
2023-04-05T16:39:52.998Z,30.60
2023-04-05T16:42:21.372Z,30.60
2023-04-05T16:44:49.814Z,30.50
2023-04-05T16:47:18.296Z,30.50
2023-04-05T16:49:47.122Z,30.50
2023-04-05T16:52:16.151Z,30.50
2023-04-05T16:54:44.518Z,30.40
2023-04-05T16:57:13.413Z,30.40
2023-04-05T17:03:14.851Z,30.40
2023-04-05T17:05:43.310Z,30.40
2023-04-05T17:08:12.024Z,30.30
2023-04-05T17:10:40.531Z,30.30
2023-04-05T17:13:08.885Z,30.30
2023-04-05T17:15:37.789Z,30.30
2023-04-05T17:18:07.369Z,30.30
2023-04-05T17:20:35.739Z,30.40
2023-04-05T17:23:04.214Z,30.40
2023-04-05T17:25:32.771Z,30.30
2023-04-05T17:28:01.347Z,30.30
2023-04-05T17:30:29.741Z,30.30
2023-04-05T17:32:58.328Z,30.20
2023-04-05T17:35:26.786Z,30.10
2023-04-05T17:37:55.180Z,30.10
2023-04-05T17:40:23.646Z,30.00
2023-04-05T17:42:51.984Z,30.00
2023-04-05T17:45:20.377Z,29.90
2023-04-05T17:47:48.776Z,29.90
2023-04-05T17:50:17.271Z,29.90
2023-04-05T17:52:45.934Z,29.90
2023-04-05T17:55:14.336Z,29.90
2023-04-05T17:57:42.776Z,29.90
2023-04-05T18:00:11.634Z,29.90
2023-04-05T18:02:41.712Z,29.90
2023-04-05T18:05:11.243Z,29.80
2023-04-05T18:07:39.728Z,29.80
2023-04-05T18:10:08.528Z,29.80
2023-04-05T18:12:37.674Z,29.80
2023-04-05T18:15:06.258Z,29.80
2023-04-05T18:17:34.861Z,29.80
2023-04-05T18:20:03.398Z,29.70
2023-04-05T18:22:33.674Z,29.70
2023-04-05T18:25:02.053Z,29.70
2023-04-05T18:27:30.544Z,29.70
2023-04-05T18:29:58.932Z,29.70
2023-04-05T18:32:27.419Z,29.70
2023-04-05T18:34:55.989Z,29.70
2023-04-05T18:37:25.631Z,29.70
2023-04-05T18:39:54.061Z,29.70
2023-04-05T18:42:22.533Z,29.60
2023-04-05T18:44:50.921Z,29.60
2023-04-05T18:47:19.338Z,29.60
2023-04-05T18:49:47.675Z,29.50
2023-04-05T18:52:18.262Z,29.50
2023-04-05T18:54:46.679Z,29.50
2023-04-05T18:57:15.102Z,29.40
2023-04-05T18:59:43.596Z,29.40
2023-04-05T19:02:12.035Z,29.40
2023-04-05T19:04:40.505Z,29.40
2023-04-05T19:07:08.920Z,29.40
2023-04-05T19:09:38.516Z,29.40
2023-04-05T19:12:07.225Z,29.40
2023-04-05T19:14:35.907Z,29.30
2023-04-05T19:17:04.402Z,29.30
2023-04-05T19:19:32.771Z,29.30
2023-04-05T19:22:01.339Z,29.30
2023-04-05T19:24:29.984Z,29.30
2023-04-05T19:26:58.286Z,29.30
2023-04-05T19:29:26.784Z,29.30
2023-04-05T19:31:56.917Z,29.20
2023-04-05T19:34:25.832Z,29.20
2023-04-05T19:36:54.300Z,29.20
2023-04-05T19:39:26.315Z,29.10
2023-04-05T19:41:54.783Z,29.10
2023-04-05T19:44:42.810Z,29.10
2023-04-05T19:47:12.270Z,29.10
2023-04-05T19:49:40.861Z,29.10
2023-04-05T19:52:10.638Z,29.10
2023-04-05T19:54:39.019Z,29.20
2023-04-05T19:57:07.853Z,29.10
2023-04-05T19:59:36.352Z,29.10
2023-04-05T20:02:11.119Z,29.00
2023-04-05T20:04:40.013Z,29.00
2023-04-05T20:07:08.942Z,29.00
2023-04-05T20:09:38.804Z,29.10
2023-04-05T20:12:07.336Z,29.00
2023-04-05T20:14:51.528Z,29.10
2023-04-05T20:17:19.891Z,29.10
2023-04-05T20:20:01.195Z,29.10
2023-04-05T20:22:30.189Z,29.00
2023-04-05T20:24:58.682Z,29.00
2023-04-05T20:27:27.056Z,29.00
2023-04-05T20:29:55.380Z,28.90
2023-04-05T20:32:25.419Z,28.80
2023-04-05T20:34:53.843Z,28.80
2023-04-05T20:37:22.224Z,28.80
2023-04-05T20:39:51.521Z,28.70
2023-04-05T20:42:20.016Z,28.70
2023-04-05T20:44:48.974Z,28.70
2023-04-05T20:47:17.398Z,28.70
2023-04-05T20:49:48.526Z,28.70
2023-04-05T20:52:18.397Z,28.70
2023-04-05T20:54:48.205Z,28.70
2023-04-05T20:57:17.098Z,28.70
2023-04-05T20:59:45.563Z,28.60
2023-04-05T21:02:13.986Z,28.60
2023-04-05T21:04:42.612Z,28.60
2023-04-05T21:07:11.022Z,28.60
2023-04-05T21:09:39.498Z,28.60
2023-04-05T21:12:08.647Z,28.60
2023-04-05T21:14:37.117Z,28.60
2023-04-05T21:17:05.485Z,28.50
2023-04-05T21:19:33.956Z,28.50
2023-04-05T21:22:02.394Z,28.50
2023-04-05T21:24:30.783Z,28.50
2023-04-05T21:26:59.107Z,28.50
2023-04-05T21:29:27.500Z,28.50
2023-04-05T21:31:56.180Z,28.40
2023-04-05T21:34:24.594Z,28.40
2023-04-05T21:36:52.923Z,28.40
2023-04-05T21:39:21.649Z,28.30
2023-04-05T21:41:50.004Z,28.30
2023-04-05T21:44:18.428Z,28.30
2023-04-05T21:46:46.886Z,28.30
2023-04-05T21:49:15.226Z,28.30
2023-04-05T21:51:43.631Z,28.30
2023-04-05T21:54:12.060Z,28.20
2023-04-05T21:56:40.442Z,28.20
2023-04-05T21:59:11.872Z,28.10
2023-04-05T22:01:40.285Z,28.10
2023-04-05T22:04:08.626Z,28.10
2023-04-05T22:06:37.018Z,28.00
2023-04-05T22:09:05.392Z,28.00
2023-04-05T22:11:35.833Z,27.90
2023-04-05T22:14:04.496Z,27.90
2023-04-05T22:16:33.132Z,27.80
2023-04-05T22:19:01.584Z,27.70
2023-04-05T22:21:29.984Z,27.60
2023-04-05T22:23:58.449Z,27.60
2023-04-05T22:26:27.138Z,27.50
2023-04-05T22:28:55.470Z,27.60
2023-04-05T22:31:23.919Z,27.60
2023-04-05T22:33:52.497Z,27.50
2023-04-05T22:36:20.843Z,27.40
2023-04-05T22:38:49.747Z,27.40
2023-04-05T22:41:19.105Z,27.30
2023-04-05T22:43:47.434Z,27.30
2023-04-05T22:46:15.956Z,27.30
2023-04-05T22:48:45.026Z,27.30
2023-04-05T22:51:13.349Z,27.30
2023-04-05T22:53:44.358Z,27.30
2023-04-05T22:56:12.706Z,27.30
2023-04-05T22:58:41.059Z,27.40
2023-04-05T23:01:09.549Z,27.30
2023-04-05T23:03:40.045Z,27.40
2023-04-05T23:06:08.488Z,27.40
2023-04-05T23:08:37.087Z,27.40
2023-04-05T23:11:05.703Z,27.40
2023-04-05T23:13:34.100Z,27.40
2023-04-05T23:16:02.769Z,27.40
2023-04-05T23:18:31.439Z,27.50
2023-04-05T23:20:59.792Z,27.50
2023-04-05T23:23:28.205Z,27.50
2023-04-05T23:25:56.692Z,27.60
2023-04-05T23:28:25.062Z,27.60
2023-04-05T23:30:53.519Z,27.60
2023-04-05T23:33:21.925Z,27.60
2023-04-05T23:35:50.273Z,27.70
2023-04-05T23:38:18.658Z,27.70
2023-04-05T23:40:47.272Z,27.70
2023-04-05T23:43:15.703Z,27.80
2023-04-05T23:45:44.224Z,27.80
2023-04-05T23:48:13.361Z,27.80
2023-04-05T23:50:41.845Z,27.90
2023-04-05T23:53:13.306Z,27.90
2023-04-05T23:55:42.723Z,27.90
2023-04-05T23:58:11.161Z,27.90
